Logo AVAMET
Benvolgut visitant, si us plau, ingressa Recuperar contrasenya
AVAMET paisatges

Teulada Sant Jaume

Dades diàries. Acumulats / Últims 30 dies disponibles

Data Temperatura (°C) Humitat rel. (%) Pressió rel. (hPa) Vent (km/h) Precipitació
Mínima Mitjana Màxima Amplitud
tèrmica
Mínima Mitjana Màxima Mínima Mitjana Màxima Predom. Mitjana Ràfega
màxima
Total
(mm)
Índex-n
Mínima Mitjana Màxima Mínima Mitjana Màxima n
0 a 1
P0 max
mm 5'
Dades mensuals acumulades fins l'últim dia disponible
08/2020 22,8 23,1 23,6 26,6 28,3 31,2 32,7 9,9 60 83 98 1.009 1.011 1.015   7,1 33,3 0,0
Dades anuals acumulades fins l'últim dia disponible
2020 4,9 13,2 24,1 16,9 9,9 21,3 34,4 29,5 21 78 98 999 1.015 1.031   7,2 86,6 396,8
Últims 30 dies disponibles
03-08-2020 22,8     25,2     28,3 5,5 78 88 98 1.009 1.010 1.012 E 5,9 31,4 0,0
02-08-2020 23,6     27,1     32,5 8,9 60 79 98 1.010 1.012 1.014 NNE 10,8 33,3 0,0
01-08-2020 23,0     27,5     32,7 9,7 63 81 98 1.010 1.013 1.015 SSO 4,6 18,5 0,0
31-07-2020 24,1     27,9     32,5 8,4 52 75 98 1.011 1.013 1.014 NO 7,1 20,4 0,0
30-07-2020 22,8     27,0     33,4 10,6 55 77 98 1.011 1.013 1.015 N 12,9 24,1 0,0
29-07-2020 23,5     26,7     31,6 8,1 58 78 97 1.011 1.013 1.014 N 16,6 31,4 0,0
28-07-2020 23,9     28,5     34,4 10,5 38 60 82 1.011 1.012 1.014 N 7,5 16,6 0,0
27-07-2020 21,3     26,7     33,3 12,0 40 69 97 1.012 1.014 1.015 NNO 6,9 22,2 0,0
26-07-2020 19,9     25,6     31,7 11,8 52 75 97 1.011 1.013 1.015 NNO 4,0 18,5 0,0
25-07-2020 20,4     25,3     29,7 9,3 51 74 97 1.011 1.013 1.014 SO 3,3 16,6 0,0
24-07-2020 21,0     25,0     28,7 7,7 55 71 86 1.010 1.012 1.013 SO 6,1 18,5 0,0
23-07-2020 20,2     25,9     31,0 10,8 41 68 95 1.011 1.013 1.015 NO 7,0 16,6 0,0
22-07-2020 22,3     25,5     30,4 8,1 51 78 98 1.014 1.016 1.017 N 13,7 28,1 0,0
21-07-2020 19,4     24,5     29,8 10,4 54 83 98 1.015 1.016 1.017 N 10,7 31,6 0,0
20-07-2020 21,1     24,0     28,2 7,1 68 85 96 1.013 1.014 1.017 SO 4,2 15,2 0,0
19-07-2020 20,7     24,3     28,3 7,6 54 80 97 1.012 1.013 1.014 SO 9,9 34,2 0,0
18-07-2020 20,1     22,6     27,4 7,3 74 91 98 1.012 1.014 1.015 SO 4,3 22,9 0,0
17-07-2020 19,4     23,0     26,4 7,0 74 88 98 1.012 1.014 1.016 SO 4,9 24,4 0,0
16-07-2020 18,8     23,4     27,3 8,5 70 81 94 1.015 1.016 1.017 SO 3,7 20,5 0,0
15-07-2020 18,0     23,0     27,6 9,6 59 81 98 1.013 1.014 1.016 O 4,0 19,4 0,0
14-07-2020 20,5     22,5     27,9 7,4 67 87 97 1.012 1.014 1.016 NO 6,6 20,5 1,5
13-07-2020 20,4     25,0     30,6 10,2 55 75 97 1.014 1.016 1.017 N 9,9 24,8 0,0
12-07-2020 20,5     23,7     28,8 8,3 57 84 98 1.015 1.016 1.018 NO 6,4 21,6 0,0
11-07-2020 21,9     25,1     30,2 8,3 65 81 97 1.012 1.014 1.016 N 14,4 30,9 0,0
10-07-2020 21,3     25,2     30,8 9,5 56 81 98 1.011 1.012 1.014 N 11,9 29,0 0,0
09-07-2020 21,7     25,3     30,6 8,9 53 70 89 1.011 1.013 1.016 NO 9,1 28,1 0,0
08-07-2020 20,1     24,1     28,7 8,6 53 83 98 1.014 1.015 1.016 O 3,0 16,1 0,0
07-07-2020 21,0     25,1     28,9 7,9 47 68 91 1.011 1.013 1.014 SO 5,3 27,4 0,0
06-07-2020 19,3     24,1     29,5 10,2 54 78 97 1.012 1.014 1.016 SO 5,9 21,3 0,0
05-07-2020 19,3     22,8     27,1 7,8 72 85 98 1.015 1.018 1.020 OSO 4,6 21,3 0,0
Últims 13 mesos disponibles
07/2020 18,0 20,9 24,1 24,8 26,3 29,6 34,4 16,4 60 79 94 1.009 1.014 1.019 SO 7,6 34,2 4,1
06/2020 13,7 17,2 19,6 21,4 18,9 26,1 31,1 17,4 48 79 96 1.002 1.012 1.019 ONO 6,4 47,4 46,8
05/2020 12,3 15,1 19,0 19,6 19,1 24,5 28,3 16,0 54 72 90 1.002 1.014 1.024 O 7,5 41,1 12,9
04/2020 7,7 11,2 16,3 14,3 14,9 18,7 23,5 15,8 57 84 98 1.002 1.012 1.022 OSO 7,3 46,8 41,9
03/2020 6,3 9,7 14,8 12,9 9,9 16,9 23,7 17,4 40 77 98 1.003 1.013 1.022 NO 9,9 58,6 56,8
02/2020 6,3 9,8 14,5 13,4 12,6 17,7 25,3 19,0 35 75 98 1.010 1.021 1.029 OSO 4,9 36,3 5,0
01/2020 4,9 7,6 14,2 10,7 11,7 14,8 20,5 15,6 55 79 98 1.010 1.021 1.028 O 6,7 86,6 229,3
12/2019 5,8 10,1 14,4 12,8 12,1 16,7 22,0 16,2 46 77 97 1.001 1.015 1.028 OSO 7,2 54,6 144,0
11/2019 5,8 11,0 20,0 14,2 13,1 18,1 25,7 19,9 39 58 83 994 1.007 1.015 O 9,9 56,4 22,0
10/2019 10,1 15,4 18,9 18,8 15,5 23,1 26,7 16,6 48 77 96 1.004 1.013 1.018 OSO 6,2 84,9 79,2
09/2019 12,8 18,6 22,3 22,0 22,1 26,2 29,5 16,7 65 85 94 1.007 1.015 1.020 OSO 9,0 54,6 152,0
08/2019 17,6 20,6 24,2 24,8 26,5 29,8 36,0 18,4 51 78 89 1.008 1.014 1.017 SO 9,0 42,4 56,9
07/2019 18,6 20,8 25,3 25,5 27,8 30,7 34,5 15,9 39 69 84 1.004 1.012 1.019 SO 8,4 52,5 1,5
Tots els anys disponibles
2019 2,4 13,3 25,3 17,1 10,6 21,7 36,0 33,6 29 71 98 992 1.013 1.029 SO 9,1 84,9 776,3
2018 1,9 13,3 24,3 17,0 7,0 21,6 35,4 33,5 33 71 98 57 986 1.028 SSO 9,0 84,2 580,5
2017 -0,4 13,4 25,4 17,3 6,6 22,0 35,8 36,2 31 70 96 971 1.015 1.031 S 9,0 87,0 647,4
2016 2,8 13,6 25,8 17,8 11,2 22,0 38,4 35,6 24 68 98 981 1.017 1.035 57,0 401,7
Temperatura (°C)
Humitat relativa (%)
Velocitat del vent i ràfega màxima (km/h)
Direcció del vent (°)
Pressió (hPa)
Precipitació (mm)
Nota sobre les dades: s'avisa a l'usuari de la provisionalitat i no oficialitat d'aquestes dades
Logo AVAMET blanc
Web allotjada a Sollutia
Llicència de Creative CommonsLa web d'AVAMET i els seus continguts estan subjectes a una llicència de
Reconeixement - No Comercial - Compartir igual
Últimes estacions: Confrides - Aitana Cota 1300 (PPIF), Torremocha del Jiloca (Limítrofe/Soci), Orihuela - Arneva (MeteOrihuela), Enguera - Antolí (Soci), Vilamarxant - La Pedrera (Soci), Càlig (Ajuntament Soci), Quesa - Hotel La Rocha (Soci), Agres - Les Eres (Soci) - - -